ADDS METAR Data INFO
IDs: Format: Raw Decoded Include TAF

Data at: 1251 UTC 19 Oct 2017

KGZL 191235Z AUTO 10005KT 10SM CLR 11/09 A3018 RMK AO2
KGZL 191215Z AUTO 05003KT 10SM CLR 11/09 A3018 RMK AO2
KGZL 191155Z AUTO 09003KT 10SM CLR 10/08 A3017 RMK AO2
KGZL 191135Z AUTO 12003KT 10SM CLR 10/09 A3017 RMK AO2
KGZL 191115Z AUTO 10003KT 10SM CLR 09/07 A3017 RMK AO2
KGZL 191055Z AUTO 00000KT 10SM CLR 09/07 A3016 RMK AO2
KGZL 191035Z AUTO 00000KT 10SM CLR 10/08 A3016 RMK AO2
KGZL 191015Z AUTO 00000KT 10SM CLR 10/08 A3015 RMK AO2
KGZL 190955Z AUTO 00000KT 10SM CLR 10/07 A3014 RMK AO2
KGZL 190935Z AUTO 00000KT 10SM CLR 09/06 A3014 RMK AO2
KGZL 190915Z AUTO 00000KT 10SM CLR 10/08 A3014 RMK AO2
KGZL 190855Z AUTO 00000KT 10SM CLR 10/07 A3014 RMK AO2
KGZL 190835Z AUTO 00000KT 10SM CLR 10/07 A3014 RMK AO2
KGZL 190815Z AUTO 33003KT 10SM CLR 11/06 A3013 RMK AO2
KGZL 190755Z AUTO 00000KT 10SM CLR 13/07 A3013 RMK AO2
KGZL 190735Z AUTO 12007KT 10SM CLR 14/07 A3012 RMK AO2
KGZL 190715Z AUTO 12007KT 10SM FEW029 14/06 A3012 RMK AO2
KGZL 190655Z AUTO 11008KT 10SM CLR 14/07 A3012 RMK AO2
KGZL 190635Z AUTO 12008KT 10SM CLR 14/07 A3011 RMK AO2
KGZL 190615Z AUTO 13004KT 10SM CLR 13/06 A3011 RMK AO2
KGZL 190555Z AUTO 14004KT 10SM CLR 14/06 A3011 RMK AO2
KGZL 190535Z AUTO 12004KT 10SM CLR 14/07 A3011 RMK AO2
KGZL 190515Z AUTO 10004KT 10SM CLR 13/07 A3011 RMK AO2
KGZL 190455Z AUTO 11003KT 10SM CLR 13/05 A3012 RMK AO2
KGZL 190435Z AUTO 00000KT 10SM CLR 12/06 A3012 RMK AO2
KGZL 190415Z AUTO 17003KT 10SM CLR 13/06 A3012 RMK AO2
KGZL 190355Z AUTO 15005KT 10SM CLR 12/06 A3012 RMK AO2
KGZL 190335Z AUTO 09003KT 10SM CLR 14/05 A3012 RMK AO2
KGZL 190315Z AUTO 11006KT 10SM CLR 14/06 A3012 RMK AO2
KGZL 190255Z AUTO 12004KT 10SM CLR 13/06 A3012 RMK AO2
KGZL 190235Z AUTO 03004KT 10SM CLR 14/05 A3012 RMK AO2
KGZL 190215Z AUTO 00000KT 10SM CLR 14/05 A3012 RMK AO2
KGZL 190155Z AUTO 00000KT 10SM CLR 18/02 A3011 RMK AO2
KGZL 190135Z AUTO 16007KT 10SM CLR 17/02 A3010 RMK AO2
KGZL 190115Z AUTO 16005KT 10SM CLR 18/01 A3010 RMK AO2
KGZL 190055Z AUTO 18004KT 10SM CLR 19/00 A3010 RMK AO2
KGZL 190035Z AUTO 16006KT 10SM CLR 19/00 A3009 RMK AO2
KGZL 190015Z AUTO 16006KT 10SM CLR 20/00 A3009 RMK AO2
KGZL 182355Z AUTO 16006KT 10SM CLR 20/00 A3009 RMK AO2
KGZL 182335Z AUTO 16005KT 10SM CLR 22/00 A3009 RMK AO2
KGZL 182315Z AUTO 15005KT 10SM CLR 24/M01 A3009 RMK AO2
KGZL 182255Z AUTO 16006KT 10SM CLR 25/M03 A3009 RMK AO2
KGZL 182235Z AUTO 15008KT 10SM CLR 26/M04 A3009 RMK AO2
KGZL 182215Z AUTO 18010KT 10SM CLR 27/M07 A3009 RMK AO2
KGZL 182155Z AUTO 19008KT 10SM CLR 27/M07 A3009 RMK AO2
KGZL 182135Z AUTO 18010KT 10SM CLR 27/M05 A3009 RMK AO2
KGZL 182115Z AUTO 17010KT 10SM CLR 27/M04 A3009 RMK AO2
KGZL 182055Z AUTO 18010KT 10SM CLR 27/M04 A3009 RMK AO2
KGZL 182035Z AUTO 20008KT 10SM CLR 27/M04 A3009 RMK AO2
KGZL 182015Z AUTO 18005KT 10SM CLR 27/M04 A3009 RMK AO2
KGZL 181955Z AUTO 17007G14KT 10SM CLR 27/M05 A3010 RMK AO2
KGZL 181935Z AUTO 18009G15KT 10SM CLR 27/M05 A3011 RMK AO2
KGZL 181915Z AUTO 19010KT 10SM CLR 26/M05 A3012 RMK AO2
KGZL 181855Z AUTO 18008KT 10SM CLR 25/M04 A3013 RMK AO2
KGZL 181835Z AUTO 19007KT 10SM CLR 25/M03 A3014 RMK AO2
KGZL 181815Z AUTO 20005KT 10SM CLR 24/M03 A3015 RMK AO2
KGZL 181755Z AUTO 18007KT 10SM CLR 24/M03 A3015 RMK AO2
KGZL 181735Z AUTO 17009G14KT 10SM CLR 23/M02 A3016 RMK AO2
KGZL 181715Z AUTO 18007KT 10SM CLR 23/M02 A3017 RMK AO2 LTG DSNT S
KGZL 181655Z AUTO 19008KT 10SM CLR 22/M01 A3018 RMK AO2
KGZL 181635Z AUTO 18007KT 150V230 10SM CLR 22/00 A3018 RMK AO2
KGZL 181615Z AUTO 18009KT 160V220 10SM CLR 20/00 A3019 RMK AO2
KGZL 181555Z AUTO 16006KT 10SM CLR 19/03 A3019 RMK AO2
KGZL 181535Z AUTO 15006KT 10SM CLR 18/03 A3019 RMK AO2
KGZL 181515Z AUTO 10006KT 10SM CLR 17/05 A3019 RMK AO2
KGZL 181455Z AUTO 10005KT 10SM CLR 15/06 A3019 RMK AO2
KGZL 181435Z AUTO 12006KT 10SM CLR 14/05 A3019 RMK AO2
KGZL 181415Z AUTO 13004KT 10SM CLR 13/05 A3019 RMK AO2
KGZL 181355Z AUTO 11008KT 10SM CLR 12/05 A3018 RMK AO2
KGZL 181335Z AUTO 08004KT 10SM CLR 10/05 A3017 RMK AO2
KGZL 181315Z AUTO 12004KT 10SM CLR 10/06 A3017 RMK AO2
KGZL 181255Z AUTO 11006KT 10SM CLR 09/05 A3016 RMK AO2
KGZL 181235Z AUTO 11008KT 10SM CLR 08/05 A3016 RMK AO2
KGZL 181215Z AUTO 10008KT 10SM 08/05 A3016 RMK AO2
KGZL 181155Z AUTO 10009KT 10SM CLR 08/05 A3016 RMK AO2
KGZL 181135Z AUTO 10008KT 10SM CLR 08/06 A3015 RMK AO2
KGZL 181115Z AUTO 10008KT 10SM CLR 08/06 A3015 RMK AO2
KGZL 181055Z AUTO 10008KT 10SM CLR 09/06 A3015 RMK AO2
KGZL 181035Z AUTO 11009KT 10SM 09/06 A3015 RMK AO2
KGZL 181015Z AUTO 12008KT 10SM CLR 09/07 A3014 RMK AO2
KGZL 180955Z AUTO 12009KT 10SM CLR 09/07 A3014 RMK AO2
KGZL 180935Z AUTO 12007KT 10SM CLR 09/07 A3015 RMK AO2
KGZL 180915Z AUTO 11006KT 10SM CLR 09/08 A3015 RMK AO2
KGZL 180855Z AUTO 12008KT 10SM CLR 09/08 A3016 RMK AO2
KGZL 180835Z AUTO 12006KT 10SM CLR 09/08 A3016 RMK AO2
KGZL 180815Z AUTO 13004KT 10SM CLR 08/07 A3017 RMK AO2
KGZL 180755Z AUTO 12004KT 10SM CLR 07/05 A3017 RMK AO2
KGZL 180735Z AUTO 00000KT 10SM CLR 08/06 A3017 RMK AO2
KGZL 180715Z AUTO 10003KT 10SM CLR 07/05 A3017 RMK AO2
KGZL 180655Z AUTO 00000KT 10SM CLR 07/05 A3017 RMK AO2
KGZL 180635Z AUTO 00000KT 10SM CLR 07/05 A3017 RMK AO2
KGZL 180615Z AUTO 00000KT 10SM CLR 07/05 A3017 RMK AO2
KGZL 180555Z AUTO 00000KT 10SM CLR 08/05 A3017 RMK AO2
KGZL 180535Z AUTO 14003KT 10SM CLR 07/04 A3017 RMK AO2
KGZL 180515Z AUTO 17003KT 10SM CLR 08/05 A3018 RMK AO2
KGZL 180455Z AUTO 00000KT 10SM CLR 08/05 A3018 RMK AO2
KGZL 180435Z AUTO 00000KT 10SM CLR 09/05 A3018 RMK AO2
KGZL 180415Z AUTO 00000KT 10SM CLR 10/05 A3018 RMK AO2
KGZL 180355Z AUTO 14004KT 10SM CLR 10/07 A3017 RMK AO2
KGZL 180335Z AUTO 00000KT 10SM CLR 10/05 A3018 RMK AO2
KGZL 180315Z AUTO 00000KT 10SM CLR 10/05 A3017 RMK AO2
KGZL 180255Z AUTO 00000KT 10SM CLR 12/04 A3017 RMK AO2
KGZL 180235Z AUTO 13004KT 10SM CLR 13/04 A3017 RMK AO2
KGZL 180215Z AUTO 12005KT 10SM CLR 13/05 A3017 RMK AO2
KGZL 180155Z AUTO 12005KT A3016 RMK AO2
KGZL 180135Z AUTO 14004KT 10SM CLR 14/05 A3016 RMK AO2
KGZL 180115Z AUTO 14005KT 10SM CLR 14/06 A3016 RMK AO2
KGZL 180055Z AUTO 14005KT 10SM CLR 15/05 A3016 RMK AO2